createdAt,value
2019-03-22T00:00:51.732Z,99.90
2019-03-22T00:03:22.100Z,99.90
2019-03-22T00:05:52.387Z,99.90
2019-03-22T00:08:22.803Z,99.90
2019-03-22T00:10:53.019Z,99.90
2019-03-22T00:13:23.306Z,99.90
2019-03-22T00:15:53.694Z,99.90
2019-03-22T00:18:23.958Z,99.90
2019-03-22T00:20:54.294Z,99.90
2019-03-22T00:23:24.936Z,99.90
2019-03-22T00:25:55.234Z,99.90
2019-03-22T00:28:25.506Z,99.90
2019-03-22T00:30:59.994Z,99.90
2019-03-22T00:33:30.250Z,99.90
2019-03-22T00:36:00.535Z,99.90
2019-03-22T00:38:30.853Z,99.90
2019-03-22T00:41:05.809Z,99.90
2019-03-22T00:43:36.231Z,99.90
2019-03-22T00:46:06.536Z,99.90
2019-03-22T00:48:36.800Z,99.90
2019-03-22T00:51:07.125Z,99.90
2019-03-22T00:53:37.550Z,99.90
2019-03-22T00:56:11.451Z,99.90
2019-03-22T00:58:41.695Z,99.90
2019-03-22T01:01:12.378Z,99.90
2019-03-22T01:03:42.755Z,99.90
2019-03-22T01:06:13.020Z,99.90
2019-03-22T01:08:43.274Z,99.90
2019-03-22T01:11:26.023Z,99.90
2019-03-22T01:13:56.219Z,99.90
2019-03-22T01:16:26.378Z,99.90
2019-03-22T01:19:01.619Z,99.90
2019-03-22T01:21:31.794Z,99.90
2019-03-22T01:24:01.975Z,99.90
2019-03-22T01:26:40.279Z,99.90
2019-03-22T01:29:10.469Z,99.90
2019-03-22T01:31:40.631Z,99.90
2019-03-22T01:34:15.690Z,99.90
2019-03-22T01:36:45.931Z,99.90
2019-03-22T01:39:16.120Z,99.90
2019-03-22T01:41:46.450Z,99.90
2019-03-22T01:44:24.278Z,99.90
2019-03-22T01:46:54.530Z,99.90
2019-03-22T01:49:24.709Z,99.90
2019-03-22T01:51:54.925Z,99.90
2019-03-22T01:54:25.447Z,99.90
2019-03-22T01:56:58.123Z,99.90
2019-03-22T01:59:28.317Z,99.90
2019-03-22T02:01:58.631Z,99.90
2019-03-22T02:04:28.842Z,99.90
2019-03-22T02:06:59.064Z,99.90
2019-03-22T02:09:29.318Z,99.90
2019-03-22T02:12:02.019Z,99.90
2019-03-22T02:14:32.235Z,99.90
2019-03-22T02:17:02.519Z,99.90
2019-03-22T02:19:32.694Z,99.90
2019-03-22T02:22:02.939Z,99.90
2019-03-22T02:24:33.182Z,99.90
2019-03-22T02:27:03.806Z,99.90
2019-03-22T02:29:33.988Z,99.90
2019-03-22T02:32:04.343Z,99.90
2019-03-22T02:34:38.208Z,99.90
2019-03-22T02:37:08.503Z,99.90
2019-03-22T02:39:38.842Z,99.90
2019-03-22T02:42:14.991Z,99.90
2019-03-22T02:44:48.049Z,99.90
2019-03-22T02:47:18.356Z,99.90
2019-03-22T02:49:48.592Z,99.90
2019-03-22T02:52:18.787Z,99.90
2019-03-22T02:54:49.107Z,99.90
2019-03-22T02:57:28.255Z,99.90
2019-03-22T02:59:58.537Z,99.90
2019-03-22T03:02:28.791Z,99.90
2019-03-22T03:04:59.016Z,99.90
2019-03-22T03:07:29.300Z,99.90
2019-03-22T03:09:59.559Z,99.90
2019-03-22T03:12:32.383Z,99.90
2019-03-22T03:15:02.554Z,99.90
2019-03-22T03:17:32.747Z,99.90
2019-03-22T03:20:03.078Z,99.90
2019-03-22T03:22:33.297Z,99.90
2019-03-22T03:25:03.517Z,99.90
2019-03-22T03:27:36.216Z,99.90
2019-03-22T03:30:07.777Z,99.90
2019-03-22T03:32:37.964Z,99.90
2019-03-22T03:35:11.490Z,99.90
2019-03-22T03:37:41.681Z,99.90
2019-03-22T03:40:12.254Z,99.90
2019-03-22T03:42:42.743Z,99.90
2019-03-22T03:45:33.666Z,99.90
2019-03-22T03:48:04.987Z,99.90
2019-03-22T03:50:35.224Z,99.90
2019-03-22T03:53:06.008Z,99.90
2019-03-22T03:55:36.374Z,99.90
2019-03-22T03:58:06.856Z,99.90
2019-03-22T04:00:37.043Z,99.90
2019-03-22T04:03:07.417Z,99.90
2019-03-22T04:05:44.346Z,99.90
2019-03-22T04:08:14.648Z,99.90
2019-03-22T04:10:44.859Z,99.90
2019-03-22T04:13:15.073Z,99.90
2019-03-22T04:15:45.519Z,99.90
2019-03-22T04:18:15.754Z,99.90
2019-03-22T04:20:51.580Z,99.90
2019-03-22T04:23:21.827Z,99.90
2019-03-22T04:25:52.004Z,99.90
2019-03-22T04:28:22.252Z,99.90
2019-03-22T04:30:52.485Z,99.90
2019-03-22T04:33:22.660Z,99.90
2019-03-22T04:35:52.995Z,99.90
2019-03-22T04:38:23.195Z,99.90
2019-03-22T04:40:53.373Z,99.90
2019-03-22T04:43:23.680Z,99.90
2019-03-22T04:45:57.019Z,99.90
2019-03-22T04:48:31.261Z,99.90
2019-03-22T04:51:04.280Z,99.90
2019-03-22T04:53:47.854Z,99.90
2019-03-22T04:56:22.358Z,99.90
2019-03-22T04:58:54.638Z,99.90
2019-03-22T05:01:30.404Z,99.90
2019-03-22T05:04:00.936Z,99.90
2019-03-22T05:06:32.746Z,99.90
2019-03-22T05:09:21.165Z,99.90
2019-03-22T05:11:53.186Z,99.90
2019-03-22T05:14:24.685Z,99.90
2019-03-22T05:16:56.885Z,99.90
2019-03-22T05:19:29.891Z,99.90
2019-03-22T05:22:09.871Z,99.90
2019-03-22T05:24:42.051Z,99.90
2019-03-22T05:27:12.714Z,99.90
2019-03-22T05:29:45.263Z,99.90
2019-03-22T05:32:17.531Z,99.90
2019-03-22T05:34:47.715Z,99.90
2019-03-22T05:37:23.839Z,99.90
2019-03-22T05:39:54.030Z,99.90
2019-03-22T05:42:24.246Z,99.90
2019-03-22T05:44:54.579Z,99.90
2019-03-22T05:47:24.870Z,99.90
2019-03-22T05:49:55.051Z,99.90
2019-03-22T05:52:27.883Z,99.90
2019-03-22T05:54:58.166Z,99.90
2019-03-22T05:57:28.418Z,99.90
2019-03-22T05:59:59.139Z,99.90
2019-03-22T06:02:29.335Z,99.90
2019-03-22T06:04:59.494Z,99.90
2019-03-22T06:11:10.832Z,99.90
2019-03-22T06:13:41.238Z,99.90
2019-03-22T06:16:17.286Z,99.90
2019-03-22T06:18:50.262Z,99.90
2019-03-22T06:21:19.540Z,99.90
2019-03-22T06:23:49.994Z,99.90
2019-03-22T06:26:20.395Z,99.90
2019-03-22T06:28:50.724Z,99.90
2019-03-22T06:31:20.920Z,99.90
2019-03-22T06:33:51.201Z,99.90
2019-03-22T06:36:24.005Z,99.90
2019-03-22T06:38:56.863Z,99.90
2019-03-22T06:41:27.075Z,99.90
2019-03-22T06:43:58.838Z,99.90
2019-03-22T06:46:29.095Z,99.90
2019-03-22T06:49:01.658Z,99.90
2019-03-22T06:51:31.922Z,99.90
2019-03-22T06:54:02.133Z,99.90
2019-03-22T06:56:32.399Z,99.90
2019-03-22T06:59:07.203Z,99.90
2019-03-22T07:01:37.609Z,99.90
2019-03-22T07:04:07.887Z,99.90
2019-03-22T07:06:38.148Z,99.90
2019-03-22T07:09:13.020Z,99.90
2019-03-22T07:11:44.109Z,99.90
2019-03-22T07:14:14.292Z,99.90
2019-03-22T07:16:48.242Z,99.90
2019-03-22T07:19:18.416Z,99.90
2019-03-22T07:21:48.669Z,99.90
2019-03-22T07:24:19.291Z,99.90
2019-03-22T07:26:49.650Z,99.90
2019-03-22T07:29:19.923Z,99.90
2019-03-22T07:31:50.380Z,99.90
2019-03-22T07:34:20.637Z,99.90
2019-03-22T07:36:52.123Z,99.90
2019-03-22T07:39:27.322Z,99.90
2019-03-22T07:41:57.587Z,99.90
2019-03-22T07:44:35.111Z,99.90
2019-03-22T07:47:05.335Z,99.90
2019-03-22T07:49:35.567Z,99.90
2019-03-22T07:52:06.425Z,99.90
2019-03-22T07:54:36.618Z,99.90
2019-03-22T07:57:06.875Z,99.90
2019-03-22T07:59:37.161Z,99.90
2019-03-22T08:02:07.343Z,99.90
2019-03-22T08:04:37.630Z,99.90
2019-03-22T08:07:11.761Z,99.90
2019-03-22T08:09:42.080Z,99.90
2019-03-22T08:12:12.399Z,99.90
2019-03-22T08:14:42.803Z,99.90
2019-03-22T08:17:23.838Z,99.90
2019-03-22T08:19:54.058Z,99.90
2019-03-22T08:22:24.276Z,99.90
2019-03-22T08:24:54.498Z,99.90
2019-03-22T08:27:27.102Z,99.90
2019-03-22T08:29:57.277Z,99.90
2019-03-22T08:32:27.519Z,99.90
2019-03-22T08:34:57.919Z,99.90
2019-03-22T08:37:28.111Z,99.90
2019-03-22T08:39:58.278Z,99.90
2019-03-22T08:42:28.847Z,99.90
2019-03-22T08:44:59.049Z,99.90
2019-03-22T08:47:34.268Z,99.90
2019-03-22T08:50:01.232Z,99.90
2019-03-22T08:52:31.427Z,99.90
2019-03-22T08:55:01.666Z,99.90
2019-03-22T08:57:31.991Z,99.90
2019-03-22T09:00:03.653Z,99.90
2019-03-22T09:02:33.819Z,99.90
2019-03-22T09:05:04.199Z,99.90
2019-03-22T09:07:34.496Z,99.90
2019-03-22T09:10:17.290Z,99.90
2019-03-22T09:12:47.488Z,99.90
2019-03-22T09:15:17.766Z,99.90
2019-03-22T09:17:48.217Z,99.90
2019-03-22T09:20:27.356Z,99.90
2019-03-22T09:22:57.657Z,99.90
2019-03-22T09:25:27.850Z,99.90
2019-03-22T09:27:58.033Z,99.90
2019-03-22T09:30:28.349Z,99.90
2019-03-22T09:32:58.531Z,99.90
2019-03-22T09:35:33.843Z,99.90
2019-03-22T09:38:12.712Z,99.90
2019-03-22T09:40:35.977Z,99.90
2019-03-22T09:43:06.496Z,99.90
2019-03-22T09:45:38.030Z,99.90
2019-03-22T09:48:08.364Z,99.90
2019-03-22T09:50:38.680Z,99.90
2019-03-22T09:53:09.449Z,99.90
2019-03-22T09:55:39.718Z,99.90
2019-03-22T09:58:09.918Z,99.90
2019-03-22T10:00:40.282Z,99.90
2019-03-22T10:03:34.838Z,99.90
2019-03-22T10:06:05.172Z,99.90
2019-03-22T10:08:35.486Z,99.90
2019-03-22T10:11:05.783Z,99.90
2019-03-22T10:14:02.685Z,99.90
2019-03-22T10:16:33.043Z,99.90
2019-03-22T10:19:03.278Z,99.90
2019-03-22T10:21:33.510Z,99.90
2019-03-22T10:24:03.805Z,99.90
2019-03-22T10:26:33.992Z,99.90
2019-03-22T10:29:06.772Z,99.90
2019-03-22T10:31:37.370Z,99.90
2019-03-22T10:34:08.178Z,99.90
2019-03-22T10:36:38.472Z,99.90
2019-03-22T10:39:10.508Z,99.90
2019-03-22T10:41:40.817Z,99.90
2019-03-22T10:44:28.207Z,99.90
2019-03-22T10:46:58.466Z,99.90
2019-03-22T10:49:28.832Z,99.90
2019-03-22T10:51:59.002Z,99.90
2019-03-22T10:54:29.255Z,99.90
2019-03-22T10:56:59.541Z,99.90
2019-03-22T10:59:29.734Z,99.90
2019-03-22T11:02:03.712Z,99.90
2019-03-22T11:04:31.829Z,99.90
2019-03-22T11:07:03.509Z,99.90
2019-03-22T11:09:34.947Z,99.90
2019-03-22T11:12:12.125Z,99.90
2019-03-22T11:14:37.096Z,99.90
2019-03-22T11:17:15.162Z,99.90
2019-03-22T11:19:45.369Z,99.90
2019-03-22T11:22:15.524Z,99.90
2019-03-22T11:24:45.859Z,98.00
2019-03-22T11:27:18.478Z,99.90
2019-03-22T11:29:48.638Z,99.90
2019-03-22T11:32:18.874Z,99.90
2019-03-22T11:34:49.057Z,99.90
2019-03-22T11:37:19.353Z,99.90
2019-03-22T11:39:49.649Z,99.90
2019-03-22T11:42:20.309Z,99.90
2019-03-22T11:44:51.012Z,99.90
2019-03-22T11:47:21.501Z,99.90
2019-03-22T11:49:51.744Z,99.90
2019-03-22T11:52:21.969Z,99.90
2019-03-22T11:54:59.846Z,99.90
2019-03-22T11:57:30.059Z,96.00
2019-03-22T12:00:00.327Z,99.90
2019-03-22T12:02:30.686Z,98.60
2019-03-22T12:05:03.559Z,99.90
2019-03-22T12:07:33.706Z,99.90
2019-03-22T12:10:04.541Z,96.40
2019-03-22T12:12:34.922Z,99.30
2019-03-22T12:15:05.735Z,99.10
2019-03-22T12:17:36.066Z,94.50
2019-03-22T12:20:09.390Z,92.50
2019-03-22T12:22:39.574Z,99.90
2019-03-22T12:25:11.818Z,93.40
2019-03-22T12:27:41.992Z,95.70
2019-03-22T12:30:14.610Z,99.90
2019-03-22T12:32:48.399Z,99.20
2019-03-22T12:35:19.273Z,98.50
2019-03-22T12:37:49.486Z,99.90
2019-03-22T12:40:20.244Z,99.60
2019-03-22T12:43:11.798Z,96.60
2019-03-22T12:45:44.221Z,99.90
2019-03-22T12:48:14.395Z,99.90
2019-03-22T12:50:45.082Z,95.80
2019-03-22T12:53:15.275Z,93.40
2019-03-22T12:55:45.513Z,99.90
2019-03-22T12:58:21.650Z,98.30
2019-03-22T13:00:51.888Z,93.90
2019-03-22T13:03:24.263Z,95.30
2019-03-22T13:05:54.731Z,91.90
2019-03-22T13:08:30.756Z,95.50
2019-03-22T13:11:01.091Z,91.30
2019-03-22T13:13:31.612Z,92.40
2019-03-22T13:16:02.206Z,97.00
2019-03-22T13:18:38.830Z,96.50
2019-03-22T13:21:09.066Z,99.90
2019-03-22T13:23:39.358Z,99.90
2019-03-22T13:26:14.305Z,97.60
2019-03-22T13:28:44.667Z,97.40
2019-03-22T13:31:14.932Z,96.20
2019-03-22T13:33:45.271Z,98.30
2019-03-22T13:36:16.990Z,89.70
2019-03-22T13:38:47.217Z,84.50
2019-03-22T13:41:17.775Z,88.20
2019-03-22T13:43:48.138Z,91.00
2019-03-22T13:46:18.771Z,94.40
2019-03-22T13:48:50.459Z,94.60
2019-03-22T13:51:20.729Z,94.70
2019-03-22T13:53:50.934Z,95.50
2019-03-22T13:56:33.620Z,92.80
2019-03-22T13:59:03.910Z,94.90
2019-03-22T14:01:34.201Z,95.00
2019-03-22T14:04:04.879Z,92.10
2019-03-22T14:06:37.745Z,89.90
2019-03-22T14:09:09.525Z,86.20
2019-03-22T14:11:39.718Z,88.30
2019-03-22T14:14:10.080Z,92.20
2019-03-22T14:16:50.733Z,89.70
2019-03-22T14:19:20.967Z,92.30
2019-03-22T14:21:58.242Z,96.60
2019-03-22T14:24:28.442Z,90.40
2019-03-22T14:26:58.740Z,96.80
2019-03-22T14:29:31.979Z,92.60
2019-03-22T14:32:03.701Z,97.30
2019-03-22T14:34:33.875Z,94.60
2019-03-22T14:37:04.166Z,89.90
2019-03-22T14:39:34.799Z,93.40
2019-03-22T14:42:05.248Z,91.10
2019-03-22T14:44:36.375Z,93.10
2019-03-22T14:47:06.779Z,86.90
2019-03-22T14:49:37.225Z,93.30
2019-03-22T14:52:07.403Z,88.40
2019-03-22T14:57:48.342Z,90.60
2019-03-22T15:00:12.735Z,86.20
2019-03-22T15:02:43.494Z,90.50
2019-03-22T15:05:15.846Z,92.60
2019-03-22T15:07:46.544Z,89.40
2019-03-22T15:10:17.432Z,93.70
2019-03-22T15:12:48.547Z,97.80
2019-03-22T15:15:47.473Z,91.80
2019-03-22T15:18:32.828Z,95.50
2019-03-22T15:21:20.892Z,94.50
2019-03-22T15:24:13.950Z,92.20
2019-03-22T15:27:16.312Z,91.80
2019-03-22T15:30:00.443Z,92.10
2019-03-22T15:32:47.477Z,97.20
2019-03-22T15:35:45.354Z,94.80
2019-03-22T15:38:34.805Z,96.80
2019-03-22T15:41:05.778Z,96.30
2019-03-22T15:43:36.533Z,96.60
2019-03-22T15:46:07.742Z,98.60
2019-03-22T15:48:38.393Z,98.70
2019-03-22T15:51:09.024Z,98.70
2019-03-22T15:53:39.568Z,99.40
2019-03-22T15:56:11.005Z,99.90
2019-03-22T15:58:41.560Z,99.70
2019-03-22T16:01:12.360Z,99.90
2019-03-22T16:03:44.457Z,99.90
2019-03-22T16:06:16.194Z,99.90
2019-03-22T16:08:46.888Z,99.90
2019-03-22T16:11:17.257Z,99.90
2019-03-22T16:13:47.571Z,99.90
2019-03-22T16:16:18.831Z,99.90
2019-03-22T16:18:49.859Z,99.90
2019-03-22T16:21:22.800Z,99.90
2019-03-22T16:23:54.959Z,99.90
2019-03-22T16:26:25.255Z,99.90
2019-03-22T16:28:56.054Z,99.90
2019-03-22T16:31:28.363Z,99.90
2019-03-22T16:33:59.010Z,99.90
2019-03-22T16:36:29.608Z,99.90
2019-03-22T16:39:00.172Z,99.90
2019-03-22T16:41:30.506Z,99.90
2019-03-22T16:44:04.382Z,99.90
2019-03-22T16:46:34.828Z,99.90
2019-03-22T16:49:05.512Z,99.90
2019-03-22T16:51:35.889Z,99.90
2019-03-22T16:54:06.720Z,99.90
2019-03-22T16:56:37.681Z,99.90
2019-03-22T16:59:08.247Z,99.90
2019-03-22T17:01:39.275Z,99.90
2019-03-22T17:04:09.950Z,99.90
2019-03-22T17:06:41.976Z,99.90
2019-03-22T17:09:12.614Z,99.90
2019-03-22T17:11:43.840Z,99.90
2019-03-22T17:14:14.441Z,99.90
2019-03-22T17:16:46.249Z,99.90
2019-03-22T17:19:16.719Z,99.90
2019-03-22T17:21:47.139Z,99.90
2019-03-22T17:24:17.608Z,99.90
2019-03-22T17:26:48.677Z,99.90
2019-03-22T17:29:19.503Z,99.90
2019-03-22T17:31:50.386Z,99.90
2019-03-22T17:34:21.094Z,99.90
2019-03-22T17:36:51.474Z,99.90
2019-03-22T17:39:21.899Z,99.90
2019-03-22T17:41:52.726Z,99.90
2019-03-22T17:44:34.742Z,99.90
2019-03-22T17:47:05.862Z,99.90
2019-03-22T17:49:36.852Z,99.90
2019-03-22T17:52:07.161Z,99.90
2019-03-22T17:54:37.468Z,99.90
2019-03-22T17:57:07.913Z,99.90
2019-03-22T17:59:38.443Z,99.90
2019-03-22T18:02:08.830Z,99.90
2019-03-22T18:04:50.016Z,99.90
2019-03-22T18:07:14.107Z,99.90
2019-03-22T18:09:45.034Z,99.90
2019-03-22T18:12:15.776Z,99.90
2019-03-22T18:14:54.517Z,99.90
2019-03-22T18:17:38.942Z,99.90
2019-03-22T18:20:10.419Z,99.90
2019-03-22T18:22:40.967Z,99.90
2019-03-22T18:25:12.151Z,99.90
2019-03-22T18:27:43.141Z,99.90
2019-03-22T18:30:16.505Z,99.90
2019-03-22T18:32:47.360Z,99.90
2019-03-22T18:35:18.180Z,99.90
2019-03-22T18:37:49.175Z,99.90
2019-03-22T18:40:19.555Z,99.90
2019-03-22T18:42:52.326Z,99.90
2019-03-22T18:45:22.959Z,99.90
2019-03-22T18:47:53.667Z,99.90
2019-03-22T18:50:24.652Z,99.90
2019-03-22T18:52:55.022Z,99.90
2019-03-22T18:55:26.355Z,99.90
2019-03-22T18:57:56.855Z,99.90
2019-03-22T19:00:27.239Z,99.90
2019-03-22T19:03:04.023Z,99.90
2019-03-22T19:05:34.634Z,99.90
2019-03-22T19:08:05.051Z,99.90
2019-03-22T19:10:35.752Z,99.90
2019-03-22T19:13:07.748Z,99.90
2019-03-22T19:15:39.131Z,99.90
2019-03-22T19:18:09.722Z,99.90
2019-03-22T19:20:40.648Z,99.90
2019-03-22T19:23:11.161Z,99.90
2019-03-22T19:25:47.014Z,99.90
2019-03-22T19:28:17.615Z,99.90
2019-03-22T19:30:47.932Z,99.90
2019-03-22T19:33:46.262Z,99.90
2019-03-22T19:36:16.771Z,99.90
2019-03-22T19:39:21.818Z,99.90
2019-03-22T19:42:15.480Z,99.90
2019-03-22T19:44:46.315Z,99.90
2019-03-22T19:48:16.377Z,99.90
2019-03-22T19:50:48.329Z,99.90
2019-03-22T19:53:23.385Z,99.90
2019-03-22T19:55:54.121Z,99.90
2019-03-22T19:58:24.546Z,99.90
2019-03-22T20:00:55.183Z,99.90
2019-03-22T20:03:26.671Z,99.90
2019-03-22T20:05:57.616Z,99.90
2019-03-22T20:08:43.114Z,99.90
2019-03-22T20:11:17.354Z,99.90
2019-03-22T20:13:48.391Z,99.90
2019-03-22T20:16:19.363Z,99.90
2019-03-22T20:18:49.772Z,99.90
2019-03-22T20:21:20.390Z,99.90
2019-03-22T20:23:53.811Z,99.90
2019-03-22T20:26:29.382Z,99.90
2019-03-22T20:28:59.953Z,99.90
2019-03-22T20:31:30.425Z,99.90
2019-03-22T20:34:24.484Z,99.90
2019-03-22T20:36:55.131Z,99.90
2019-03-22T20:39:25.759Z,99.90
2019-03-22T20:41:56.414Z,99.90
2019-03-22T20:44:34.023Z,99.90
2019-03-22T20:47:02.522Z,99.90
2019-03-22T20:49:33.631Z,99.90
2019-03-22T20:52:04.113Z,99.90
2019-03-22T20:54:35.008Z,99.90
2019-03-22T20:57:05.479Z,99.90
2019-03-22T20:59:36.174Z,99.90
2019-03-22T21:02:07.139Z,99.90
2019-03-22T21:04:37.705Z,99.90
2019-03-22T21:07:09.332Z,99.90
2019-03-22T21:09:42.944Z,99.90
2019-03-22T21:12:13.471Z,99.90
2019-03-22T21:14:44.339Z,99.90
2019-03-22T21:17:16.251Z,99.90
2019-03-22T21:19:46.842Z,99.90
2019-03-22T21:22:18.251Z,99.90
2019-03-22T21:24:48.951Z,99.90
2019-03-22T21:27:19.528Z,99.90
2019-03-22T21:29:50.257Z,99.90
2019-03-22T21:32:20.881Z,99.90
2019-03-22T21:34:51.629Z,99.90
2019-03-22T21:37:23.524Z,99.90
2019-03-22T21:39:53.951Z,99.90
2019-03-22T21:42:24.272Z,99.90
2019-03-22T21:44:54.880Z,99.90
2019-03-22T21:47:25.590Z,99.90
2019-03-22T21:49:56.147Z,99.90
2019-03-22T21:52:26.779Z,99.90
2019-03-22T21:54:57.279Z,99.90
2019-03-22T21:57:27.818Z,99.90
2019-03-22T22:00:02.124Z,99.90
2019-03-22T22:02:40.417Z,99.90
2019-03-22T22:05:11.409Z,99.90
2019-03-22T22:07:41.848Z,99.90
2019-03-22T22:10:12.722Z,99.90
2019-03-22T22:12:43.491Z,99.90
2019-03-22T22:15:16.399Z,99.90
2019-03-22T22:17:46.911Z,99.90
2019-03-22T22:20:17.346Z,99.90
2019-03-22T22:22:47.744Z,99.90
2019-03-22T22:25:18.471Z,99.90
2019-03-22T22:27:49.103Z,99.90
2019-03-22T22:30:19.503Z,99.90
2019-03-22T22:32:50.039Z,99.90
2019-03-22T22:35:20.843Z,99.90
2019-03-22T22:37:51.812Z,99.90
2019-03-22T22:40:22.510Z,99.90
2019-03-22T22:42:53.099Z,99.90
2019-03-22T22:45:23.350Z,99.90
2019-03-22T22:47:54.295Z,99.90
2019-03-22T22:50:25.283Z,99.90
2019-03-22T22:52:55.771Z,99.90
2019-03-22T22:55:26.317Z,99.90
2019-03-22T22:57:56.780Z,99.90
2019-03-22T23:00:28.421Z,99.90
2019-03-22T23:02:59.640Z,99.90
2019-03-22T23:05:30.359Z,99.90
2019-03-22T23:08:01.153Z,99.90
2019-03-22T23:10:31.509Z,99.90
2019-03-22T23:13:01.906Z,99.90
2019-03-22T23:15:32.669Z,99.90
2019-03-22T23:18:03.318Z,99.90
2019-03-22T23:20:33.951Z,99.90
2019-03-22T23:23:04.490Z,99.90
2019-03-22T23:25:35.523Z,99.90
2019-03-22T23:28:06.018Z,99.90
2019-03-22T23:30:36.608Z,99.90
2019-03-22T23:33:07.561Z,99.90
2019-03-22T23:35:38.080Z,99.90
2019-03-22T23:38:08.493Z,99.90
2019-03-22T23:40:39.243Z,99.90
2019-03-22T23:43:10.209Z,99.90
2019-03-22T23:45:40.592Z,99.90
2019-03-22T23:48:11.313Z,99.90
2019-03-22T23:50:41.519Z,99.90
2019-03-22T23:53:11.917Z,99.90
2019-03-22T23:55:42.595Z,99.90
2019-03-22T23:58:13.946Z,99.90
